sensor_id;sensor_type;location;lat;lon;timestamp;P1;durP1;ratioP1;P2;durP2;ratioP2
70270;SDS011;57680;54.292;18.598;2022-09-20T00:00:03;4.93;;;1.57;;
70270;SDS011;57680;54.292;18.598;2022-09-20T00:02:29;5.13;;;1.90;;
70270;SDS011;57680;54.292;18.598;2022-09-20T00:04:55;4.37;;;1.90;;
70270;SDS011;57680;54.292;18.598;2022-09-20T00:07:20;7.67;;;1.50;;
70270;SDS011;57680;54.292;18.598;2022-09-20T00:09:46;5.57;;;1.90;;
70270;SDS011;57680;54.292;18.598;2022-09-20T00:12:11;5.93;;;2.00;;
70270;SDS011;57680;54.292;18.598;2022-09-20T00:14:37;5.60;;;2.00;;
70270;SDS011;57680;54.292;18.598;2022-09-20T00:17:02;5.38;;;1.98;;
70270;SDS011;57680;54.292;18.598;2022-09-20T00:19:28;5.30;;;1.60;;
70270;SDS011;57680;54.292;18.598;2022-09-20T00:21:53;4.67;;;1.53;;
70270;SDS011;57680;54.292;18.598;2022-09-20T00:24:19;4.27;;;2.00;;
70270;SDS011;57680;54.292;18.598;2022-09-20T00:26:44;3.80;;;1.73;;
70270;SDS011;57680;54.292;18.598;2022-09-20T00:29:10;5.57;;;2.07;;
70270;SDS011;57680;54.292;18.598;2022-09-20T00:31:37;5.03;;;1.55;;
70270;SDS011;57680;54.292;18.598;2022-09-20T00:34:04;3.90;;;1.50;;
70270;SDS011;57680;54.292;18.598;2022-09-20T00:36:49;3.80;;;1.67;;
70270;SDS011;57680;54.292;18.598;2022-09-20T00:39:14;5.27;;;1.90;;
70270;SDS011;57680;54.292;18.598;2022-09-20T00:41:41;4.38;;;1.50;;
70270;SDS011;57680;54.292;18.598;2022-09-20T00:47:23;4.40;;;1.77;;
70270;SDS011;57680;54.292;18.598;2022-09-20T00:49:51;4.93;;;1.60;;
70270;SDS011;57680;54.292;18.598;2022-09-20T00:52:20;3.72;;;1.75;;
70270;SDS011;57680;54.292;18.598;2022-09-20T00:54:46;4.80;;;2.00;;
70270;SDS011;57680;54.292;18.598;2022-09-20T00:57:12;5.13;;;1.75;;
70270;SDS011;57680;54.292;18.598;2022-09-20T00:59:39;5.53;;;1.87;;
70270;SDS011;57680;54.292;18.598;2022-09-20T01:02:11;4.72;;;1.95;;
70270;SDS011;57680;54.292;18.598;2022-09-20T01:04:41;4.72;;;2.10;;
70270;SDS011;57680;54.292;18.598;2022-09-20T01:07:09;6.27;;;1.83;;
70270;SDS011;57680;54.292;18.598;2022-09-20T01:09:38;4.78;;;1.80;;
70270;SDS011;57680;54.292;18.598;2022-09-20T01:12:08;5.13;;;2.13;;
70270;SDS011;57680;54.292;18.598;2022-09-20T01:14:38;5.97;;;1.90;;
70270;SDS011;57680;54.292;18.598;2022-09-20T01:17:04;5.50;;;1.85;;
70270;SDS011;57680;54.292;18.598;2022-09-20T01:19:37;4.47;;;1.67;;
70270;SDS011;57680;54.292;18.598;2022-09-20T01:22:25;6.10;;;2.17;;
70270;SDS011;57680;54.292;18.598;2022-09-20T01:27:51;4.50;;;1.70;;
70270;SDS011;57680;54.292;18.598;2022-09-20T01:30:22;4.10;;;1.35;;
70270;SDS011;57680;54.292;18.598;2022-09-20T01:35:36;4.85;;;1.50;;
70270;SDS011;57680;54.292;18.598;2022-09-20T01:46:02;3.33;;;1.27;;
70270;SDS011;57680;54.292;18.598;2022-09-20T01:48:36;4.55;;;1.65;;
70270;SDS011;57680;54.292;18.598;2022-09-20T01:51:08;3.80;;;1.50;;
70270;SDS011;57680;54.292;18.598;2022-09-20T02:13:05;2.67;;;1.20;;
70270;SDS011;57680;54.292;18.598;2022-09-20T02:18:20;3.53;;;1.20;;
70270;SDS011;57680;54.292;18.598;2022-09-20T02:31:27;2.83;;;1.00;;
70270;SDS011;57680;54.292;18.598;2022-09-20T02:43:01;2.67;;;1.00;;
70270;SDS011;57680;54.292;18.598;2022-09-20T02:45:43;5.22;;;1.08;;
70270;SDS011;57680;54.292;18.598;2022-09-20T02:48:17;3.40;;;1.17;;
70270;SDS011;57680;54.292;18.598;2022-09-20T02:50:53;2.95;;;1.00;;
70270;SDS011;57680;54.292;18.598;2022-09-20T02:53:33;3.95;;;1.10;;
70270;SDS011;57680;54.292;18.598;2022-09-20T02:56:10;4.23;;;1.20;;
70270;SDS011;57680;54.292;18.598;2022-09-20T03:06:32;2.83;;;1.10;;
70270;SDS011;57680;54.292;18.598;2022-09-20T03:09:16;3.67;;;1.10;;
70270;SDS011;57680;54.292;18.598;2022-09-20T03:14:35;4.22;;;0.93;;
70270;SDS011;57680;54.292;18.598;2022-09-20T03:19:49;2.40;;;0.90;;
70270;SDS011;57680;54.292;18.598;2022-09-20T03:28:02;2.10;;;0.85;;
70270;SDS011;57680;54.292;18.598;2022-09-20T03:38:57;3.67;;;1.10;;
70270;SDS011;57680;54.292;18.598;2022-09-20T03:44:23;4.18;;;1.10;;
70270;SDS011;57680;54.292;18.598;2022-09-20T03:46:44;3.45;;;1.33;;
70270;SDS011;57680;54.292;18.598;2022-09-20T03:51:53;4.65;;;1.20;;
70270;SDS011;57680;54.292;18.598;2022-09-20T03:54:40;3.58;;;1.20;;
70270;SDS011;57680;54.292;18.598;2022-09-20T04:31:34;5.03;;;1.60;;
70270;SDS011;57680;54.292;18.598;2022-09-20T04:34:04;4.25;;;1.48;;
70270;SDS011;57680;54.292;18.598;2022-09-20T04:37:00;3.30;;;1.30;;
70270;SDS011;57680;54.292;18.598;2022-09-20T04:39:39;5.63;;;1.45;;
70270;SDS011;57680;54.292;18.598;2022-09-20T04:45:20;3.03;;;1.20;;
70270;SDS011;57680;54.292;18.598;2022-09-20T04:59:40;4.28;;;1.50;;
70270;SDS011;57680;54.292;18.598;2022-09-20T05:16:28;6.82;;;1.20;;
70270;SDS011;57680;54.292;18.598;2022-09-20T05:30:44;3.08;;;1.10;;
70270;SDS011;57680;54.292;18.598;2022-09-20T05:36:07;3.80;;;1.00;;
70270;SDS011;57680;54.292;18.598;2022-09-20T05:38:44;3.47;;;0.93;;
70270;SDS011;57680;54.292;18.598;2022-09-20T05:41:18;4.07;;;1.10;;
70270;SDS011;57680;54.292;18.598;2022-09-20T05:44:02;4.63;;;1.15;;
70270;SDS011;57680;54.292;18.598;2022-09-20T05:47:04;3.15;;;0.90;;
70270;SDS011;57680;54.292;18.598;2022-09-20T05:49:35;4.50;;;1.00;;
70270;SDS011;57680;54.292;18.598;2022-09-20T05:58:04;3.95;;;1.27;;
70270;SDS011;57680;54.292;18.598;2022-09-20T06:00:40;4.60;;;1.70;;
70270;SDS011;57680;54.292;18.598;2022-09-20T06:03:29;5.10;;;1.50;;
70270;SDS011;57680;54.292;18.598;2022-09-20T06:11:39;5.80;;;1.30;;
70270;SDS011;57680;54.292;18.598;2022-09-20T06:17:38;7.83;;;4.03;;
70270;SDS011;57680;54.292;18.598;2022-09-20T06:20:15;9.00;;;4.30;;
70270;SDS011;57680;54.292;18.598;2022-09-20T06:22:52;6.20;;;1.92;;
70270;SDS011;57680;54.292;18.598;2022-09-20T06:25:22;5.72;;;1.75;;
70270;SDS011;57680;54.292;18.598;2022-09-20T06:27:57;4.72;;;1.60;;
70270;SDS011;57680;54.292;18.598;2022-09-20T06:30:34;6.93;;;2.17;;
70270;SDS011;57680;54.292;18.598;2022-09-20T06:33:23;7.18;;;2.85;;
70270;SDS011;57680;54.292;18.598;2022-09-20T06:42:22;7.18;;;1.80;;
70270;SDS011;57680;54.292;18.598;2022-09-20T06:44:48;8.20;;;1.90;;
70270;SDS011;57680;54.292;18.598;2022-09-20T06:47:14;7.80;;;1.70;;
70270;SDS011;57680;54.292;18.598;2022-09-20T06:49:40;7.03;;;2.00;;
70270;SDS011;57680;54.292;18.598;2022-09-20T06:52:07;4.47;;;1.63;;
70270;SDS011;57680;54.292;18.598;2022-09-20T06:54:42;5.18;;;1.65;;
70270;SDS011;57680;54.292;18.598;2022-09-20T06:57:10;7.75;;;1.90;;
70270;SDS011;57680;54.292;18.598;2022-09-20T06:59:39;5.80;;;1.70;;
70270;SDS011;57680;54.292;18.598;2022-09-20T07:02:05;5.63;;;1.77;;
70270;SDS011;57680;54.292;18.598;2022-09-20T07:04:32;3.90;;;1.42;;
70270;SDS011;57680;54.292;18.598;2022-09-20T07:06:59;5.53;;;1.80;;
70270;SDS011;57680;54.292;18.598;2022-09-20T07:09:29;4.60;;;1.40;;
70270;SDS011;57680;54.292;18.598;2022-09-20T07:11:55;4.22;;;1.50;;
70270;SDS011;57680;54.292;18.598;2022-09-20T07:14:22;5.28;;;1.35;;
70270;SDS011;57680;54.292;18.598;2022-09-20T07:16:49;3.13;;;1.20;;
70270;SDS011;57680;54.292;18.598;2022-09-20T07:19:14;3.97;;;1.20;;
70270;SDS011;57680;54.292;18.598;2022-09-20T07:21:40;5.95;;;1.25;;
70270;SDS011;57680;54.292;18.598;2022-09-20T07:24:06;4.27;;;1.33;;
70270;SDS011;57680;54.292;18.598;2022-09-20T07:26:31;4.97;;;1.10;;
70270;SDS011;57680;54.292;18.598;2022-09-20T07:28:58;4.90;;;1.30;;
70270;SDS011;57680;54.292;18.598;2022-09-20T07:31:24;4.35;;;1.40;;
70270;SDS011;57680;54.292;18.598;2022-09-20T07:33:51;4.88;;;1.08;;
70270;SDS011;57680;54.292;18.598;2022-09-20T07:36:17;3.70;;;1.10;;
70270;SDS011;57680;54.292;18.598;2022-09-20T07:38:47;2.13;;;0.63;;
70270;SDS011;57680;54.292;18.598;2022-09-20T07:41:14;3.22;;;0.90;;
70270;SDS011;57680;54.292;18.598;2022-09-20T07:43:40;3.13;;;0.80;;
70270;SDS011;57680;54.292;18.598;2022-09-20T07:46:06;2.90;;;0.70;;
70270;SDS011;57680;54.292;18.598;2022-09-20T07:48:33;2.83;;;0.80;;
70270;SDS011;57680;54.292;18.598;2022-09-20T07:51:01;2.50;;;0.60;;
70270;SDS011;57680;54.292;18.598;2022-09-20T07:53:29;3.10;;;0.80;;
70270;SDS011;57680;54.292;18.598;2022-09-20T07:55:55;2.05;;;0.80;;
70270;SDS011;57680;54.292;18.598;2022-09-20T07:58:24;2.60;;;0.63;;
70270;SDS011;57680;54.292;18.598;2022-09-20T08:00:52;3.13;;;0.50;;
70270;SDS011;57680;54.292;18.598;2022-09-20T08:03:21;1.73;;;0.70;;
70270;SDS011;57680;54.292;18.598;2022-09-20T08:05:47;4.93;;;0.90;;
70270;SDS011;57680;54.292;18.598;2022-09-20T08:08:14;4.13;;;0.67;;
70270;SDS011;57680;54.292;18.598;2022-09-20T08:10:42;7.28;;;1.50;;
70270;SDS011;57680;54.292;18.598;2022-09-20T08:13:08;2.55;;;0.80;;
70270;SDS011;57680;54.292;18.598;2022-09-20T08:15:34;2.70;;;0.75;;
70270;SDS011;57680;54.292;18.598;2022-09-20T08:18:00;2.10;;;0.60;;
70270;SDS011;57680;54.292;18.598;2022-09-20T08:20:26;2.75;;;0.50;;
70270;SDS011;57680;54.292;18.598;2022-09-20T08:22:51;3.07;;;0.50;;
70270;SDS011;57680;54.292;18.598;2022-09-20T08:25:19;3.17;;;0.70;;
70270;SDS011;57680;54.292;18.598;2022-09-20T08:27:50;2.50;;;0.60;;
70270;SDS011;57680;54.292;18.598;2022-09-20T08:30:17;2.15;;;0.60;;
70270;SDS011;57680;54.292;18.598;2022-09-20T08:32:42;2.05;;;0.70;;
70270;SDS011;57680;54.292;18.598;2022-09-20T08:35:08;2.00;;;0.80;;
70270;SDS011;57680;54.292;18.598;2022-09-20T08:37:33;1.77;;;0.60;;
70270;SDS011;57680;54.292;18.598;2022-09-20T08:39:59;2.28;;;0.60;;
70270;SDS011;57680;54.292;18.598;2022-09-20T08:42:29;4.07;;;0.83;;
70270;SDS011;57680;54.292;18.598;2022-09-20T08:44:58;2.13;;;0.60;;
70270;SDS011;57680;54.292;18.598;2022-09-20T08:47:30;3.00;;;0.57;;
70270;SDS011;57680;54.292;18.598;2022-09-20T08:50:03;1.73;;;0.60;;
70270;SDS011;57680;54.292;18.598;2022-09-20T08:52:32;1.63;;;0.40;;
70270;SDS011;57680;54.292;18.598;2022-09-20T08:55:01;1.10;;;0.43;;
70270;SDS011;57680;54.292;18.598;2022-09-20T08:57:30;1.35;;;0.50;;
70270;SDS011;57680;54.292;18.598;2022-09-20T09:00:00;3.22;;;0.77;;
70270;SDS011;57680;54.292;18.598;2022-09-20T09:02:29;2.03;;;0.50;;
70270;SDS011;57680;54.292;18.598;2022-09-20T09:04:56;1.35;;;0.50;;
70270;SDS011;57680;54.292;18.598;2022-09-20T09:07:22;1.50;;;0.50;;
70270;SDS011;57680;54.292;18.598;2022-09-20T09:09:50;2.90;;;0.60;;
70270;SDS011;57680;54.292;18.598;2022-09-20T09:12:25;2.80;;;0.73;;
70270;SDS011;57680;54.292;18.598;2022-09-20T09:14:56;2.17;;;0.70;;
70270;SDS011;57680;54.292;18.598;2022-09-20T09:17:43;2.17;;;0.60;;
70270;SDS011;57680;54.292;18.598;2022-09-20T09:20:17;2.10;;;0.67;;
70270;SDS011;57680;54.292;18.598;2022-09-20T09:22:46;2.00;;;0.40;;
70270;SDS011;57680;54.292;18.598;2022-09-20T09:28:19;3.47;;;0.50;;
70270;SDS011;57680;54.292;18.598;2022-09-20T09:30:48;3.08;;;0.50;;
70270;SDS011;57680;54.292;18.598;2022-09-20T09:35:39;2.40;;;0.33;;
70270;SDS011;57680;54.292;18.598;2022-09-20T09:38:28;1.60;;;0.50;;
70270;SDS011;57680;54.292;18.598;2022-09-20T09:40:56;2.13;;;0.60;;
70270;SDS011;57680;54.292;18.598;2022-09-20T09:43:30;2.40;;;0.60;;
70270;SDS011;57680;54.292;18.598;2022-09-20T09:46:15;2.37;;;0.43;;
70270;SDS011;57680;54.292;18.598;2022-09-20T09:49:32;1.75;;;0.40;;
70270;SDS011;57680;54.292;18.598;2022-09-20T09:51:37;1.70;;;0.57;;
70270;SDS011;57680;54.292;18.598;2022-09-20T09:54:03;1.20;;;0.50;;
70270;SDS011;57680;54.292;18.598;2022-09-20T09:56:44;2.35;;;0.52;;
70270;SDS011;57680;54.292;18.598;2022-09-20T10:05:01;1.67;;;0.55;;
70270;SDS011;57680;54.292;18.598;2022-09-20T10:11:19;1.30;;;0.50;;
70270;SDS011;57680;54.292;18.598;2022-09-20T10:19:05;4.93;;;0.93;;
70270;SDS011;57680;54.292;18.598;2022-09-20T10:30:10;3.72;;;0.90;;
70270;SDS011;57680;54.292;18.598;2022-09-20T10:35:13;3.70;;;0.90;;
70270;SDS011;57680;54.292;18.598;2022-09-20T10:49:25;2.28;;;0.50;;
70270;SDS011;57680;54.292;18.598;2022-09-20T11:03:03;2.88;;;0.98;;
70270;SDS011;57680;54.292;18.598;2022-09-20T11:08:54;2.37;;;0.67;;
70270;SDS011;57680;54.292;18.598;2022-09-20T11:11:40;1.75;;;0.43;;
70270;SDS011;57680;54.292;18.598;2022-09-20T11:22:21;3.67;;;0.53;;
70270;SDS011;57680;54.292;18.598;2022-09-20T11:25:00;1.75;;;0.63;;
70270;SDS011;57680;54.292;18.598;2022-09-20T11:27:51;2.28;;;0.60;;
70270;SDS011;57680;54.292;18.598;2022-09-20T11:30:21;1.73;;;0.40;;
70270;SDS011;57680;54.292;18.598;2022-09-20T11:35:52;1.73;;;0.60;;
70270;SDS011;57680;54.292;18.598;2022-09-20T11:38:26;1.55;;;0.57;;
70270;SDS011;57680;54.292;18.598;2022-09-20T11:41:10;1.88;;;0.50;;
70270;SDS011;57680;54.292;18.598;2022-09-20T11:43:41;2.20;;;0.70;;
70270;SDS011;57680;54.292;18.598;2022-09-20T11:46:09;3.75;;;0.85;;
70270;SDS011;57680;54.292;18.598;2022-09-20T11:48:39;3.73;;;1.00;;
70270;SDS011;57680;54.292;18.598;2022-09-20T11:51:20;4.15;;;1.50;;
70270;SDS011;57680;54.292;18.598;2022-09-20T11:58:47;3.25;;;1.10;;
70270;SDS011;57680;54.292;18.598;2022-09-20T12:01:20;5.18;;;1.40;;
70270;SDS011;57680;54.292;18.598;2022-09-20T12:11:36;4.55;;;1.73;;
70270;SDS011;57680;54.292;18.598;2022-09-20T12:14:06;4.07;;;1.30;;
70270;SDS011;57680;54.292;18.598;2022-09-20T12:16:42;4.03;;;1.20;;
70270;SDS011;57680;54.292;18.598;2022-09-20T12:19:13;3.85;;;1.20;;
70270;SDS011;57680;54.292;18.598;2022-09-20T12:24:38;4.85;;;1.42;;
70270;SDS011;57680;54.292;18.598;2022-09-20T12:27:21;2.80;;;1.10;;
70270;SDS011;57680;54.292;18.598;2022-09-20T12:30:16;4.25;;;1.00;;
70270;SDS011;57680;54.292;18.598;2022-09-20T12:32:48;4.35;;;1.00;;
70270;SDS011;57680;54.292;18.598;2022-09-20T12:43:28;3.97;;;1.00;;
70270;SDS011;57680;54.292;18.598;2022-09-20T12:45:55;2.95;;;1.13;;
70270;SDS011;57680;54.292;18.598;2022-09-20T12:48:21;3.75;;;1.20;;
70270;SDS011;57680;54.292;18.598;2022-09-20T12:51:30;3.70;;;1.10;;
70270;SDS011;57680;54.292;18.598;2022-09-20T12:54:06;4.47;;;1.10;;
70270;SDS011;57680;54.292;18.598;2022-09-20T12:56:35;4.45;;;0.93;;
70270;SDS011;57680;54.292;18.598;2022-09-20T12:59:04;4.32;;;1.40;;
70270;SDS011;57680;54.292;18.598;2022-09-20T13:06:33;4.27;;;1.13;;
70270;SDS011;57680;54.292;18.598;2022-09-20T13:11:28;5.80;;;1.80;;
70270;SDS011;57680;54.292;18.598;2022-09-20T13:16:56;5.57;;;1.25;;
70270;SDS011;57680;54.292;18.598;2022-09-20T13:19:26;3.47;;;1.20;;
70270;SDS011;57680;54.292;18.598;2022-09-20T13:21:56;4.50;;;1.20;;
70270;SDS011;57680;54.292;18.598;2022-09-20T13:24:23;5.68;;;1.50;;
70270;SDS011;57680;54.292;18.598;2022-09-20T13:26:49;4.82;;;1.40;;
70270;SDS011;57680;54.292;18.598;2022-09-20T13:29:38;4.97;;;1.55;;
70270;SDS011;57680;54.292;18.598;2022-09-20T13:32:16;3.80;;;1.37;;
70270;SDS011;57680;54.292;18.598;2022-09-20T13:37:46;4.53;;;1.20;;
70270;SDS011;57680;54.292;18.598;2022-09-20T13:43:28;4.32;;;1.15;;
70270;SDS011;57680;54.292;18.598;2022-09-20T13:45:58;4.17;;;1.03;;
70270;SDS011;57680;54.292;18.598;2022-09-20T13:48:37;2.92;;;1.00;;
70270;SDS011;57680;54.292;18.598;2022-09-20T13:51:13;2.70;;;1.00;;
70270;SDS011;57680;54.292;18.598;2022-09-20T13:56:51;3.00;;;0.80;;
70270;SDS011;57680;54.292;18.598;2022-09-20T13:59:19;5.83;;;2.03;;
70270;SDS011;57680;54.292;18.598;2022-09-20T14:01:48;3.28;;;0.80;;
70270;SDS011;57680;54.292;18.598;2022-09-20T14:04:17;2.47;;;0.90;;
70270;SDS011;57680;54.292;18.598;2022-09-20T14:06:46;3.43;;;1.10;;
70270;SDS011;57680;54.292;18.598;2022-09-20T14:09:17;3.90;;;1.10;;
70270;SDS011;57680;54.292;18.598;2022-09-20T14:11:47;4.00;;;0.90;;
70270;SDS011;57680;54.292;18.598;2022-09-20T14:14:13;4.15;;;1.30;;
70270;SDS011;57680;54.292;18.598;2022-09-20T14:16:40;3.03;;;1.10;;
70270;SDS011;57680;54.292;18.598;2022-09-20T14:19:11;3.07;;;1.03;;
70270;SDS011;57680;54.292;18.598;2022-09-20T14:21:39;2.38;;;1.00;;
70270;SDS011;57680;54.292;18.598;2022-09-20T14:24:06;3.00;;;1.00;;
70270;SDS011;57680;54.292;18.598;2022-09-20T14:29:47;4.10;;;1.02;;
70270;SDS011;57680;54.292;18.598;2022-09-20T14:37:40;4.03;;;1.00;;
70270;SDS011;57680;54.292;18.598;2022-09-20T14:40:27;3.40;;;1.05;;
70270;SDS011;57680;54.292;18.598;2022-09-20T14:43:04;4.60;;;1.15;;
70270;SDS011;57680;54.292;18.598;2022-09-20T14:48:02;4.55;;;1.63;;
70270;SDS011;57680;54.292;18.598;2022-09-20T14:50:35;3.77;;;1.50;;
70270;SDS011;57680;54.292;18.598;2022-09-20T14:55:38;4.00;;;1.05;;
70270;SDS011;57680;54.292;18.598;2022-09-20T14:58:19;6.70;;;1.42;;
70270;SDS011;57680;54.292;18.598;2022-09-20T15:00:54;4.23;;;1.20;;
70270;SDS011;57680;54.292;18.598;2022-09-20T15:03:39;4.38;;;1.40;;
70270;SDS011;57680;54.292;18.598;2022-09-20T15:06:08;4.32;;;1.25;;
70270;SDS011;57680;54.292;18.598;2022-09-20T15:08:35;4.57;;;1.30;;
70270;SDS011;57680;54.292;18.598;2022-09-20T15:11:01;5.03;;;1.58;;
70270;SDS011;57680;54.292;18.598;2022-09-20T15:13:27;5.75;;;1.63;;
70270;SDS011;57680;54.292;18.598;2022-09-20T15:15:52;8.03;;;1.60;;
70270;SDS011;57680;54.292;18.598;2022-09-20T15:18:22;5.72;;;1.73;;
70270;SDS011;57680;54.292;18.598;2022-09-20T15:20:50;5.77;;;1.70;;
70270;SDS011;57680;54.292;18.598;2022-09-20T15:23:17;5.75;;;1.70;;
70270;SDS011;57680;54.292;18.598;2022-09-20T15:25:42;5.97;;;1.92;;
70270;SDS011;57680;54.292;18.598;2022-09-20T15:28:14;5.83;;;1.50;;
70270;SDS011;57680;54.292;18.598;2022-09-20T15:30:44;5.00;;;1.58;;
70270;SDS011;57680;54.292;18.598;2022-09-20T15:33:12;5.80;;;1.77;;
70270;SDS011;57680;54.292;18.598;2022-09-20T15:35:39;6.00;;;1.48;;
70270;SDS011;57680;54.292;18.598;2022-09-20T15:38:05;7.03;;;2.20;;
70270;SDS011;57680;54.292;18.598;2022-09-20T15:40:42;11.07;;;2.93;;
70270;SDS011;57680;54.292;18.598;2022-09-20T15:43:11;6.30;;;1.85;;
70270;SDS011;57680;54.292;18.598;2022-09-20T15:46:15;7.15;;;2.40;;
70270;SDS011;57680;54.292;18.598;2022-09-20T15:48:40;7.00;;;2.47;;
70270;SDS011;57680;54.292;18.598;2022-09-20T15:51:07;6.95;;;2.50;;
70270;SDS011;57680;54.292;18.598;2022-09-20T15:53:39;8.63;;;3.03;;
70270;SDS011;57680;54.292;18.598;2022-09-20T15:56:17;11.20;;;4.40;;
70270;SDS011;57680;54.292;18.598;2022-09-20T15:58:50;7.82;;;2.70;;
70270;SDS011;57680;54.292;18.598;2022-09-20T16:01:23;7.63;;;2.30;;
70270;SDS011;57680;54.292;18.598;2022-09-20T16:03:51;5.88;;;2.50;;
70270;SDS011;57680;54.292;18.598;2022-09-20T16:06:17;10.50;;;4.83;;
70270;SDS011;57680;54.292;18.598;2022-09-20T16:08:43;10.02;;;5.07;;
70270;SDS011;57680;54.292;18.598;2022-09-20T16:11:11;9.80;;;3.97;;
70270;SDS011;57680;54.292;18.598;2022-09-20T16:13:38;7.35;;;3.25;;
70270;SDS011;57680;54.292;18.598;2022-09-20T16:16:04;7.15;;;2.85;;
70270;SDS011;57680;54.292;18.598;2022-09-20T16:18:32;6.77;;;2.50;;
70270;SDS011;57680;54.292;18.598;2022-09-20T16:21:18;8.20;;;2.80;;
70270;SDS011;57680;54.292;18.598;2022-09-20T16:23:46;8.60;;;3.75;;
70270;SDS011;57680;54.292;18.598;2022-09-20T16:26:13;7.05;;;3.47;;
70270;SDS011;57680;54.292;18.598;2022-09-20T16:28:38;7.97;;;3.20;;
70270;SDS011;57680;54.292;18.598;2022-09-20T16:31:05;7.82;;;3.53;;
70270;SDS011;57680;54.292;18.598;2022-09-20T16:33:31;8.60;;;3.85;;
70270;SDS011;57680;54.292;18.598;2022-09-20T16:35:58;10.68;;;4.40;;
70270;SDS011;57680;54.292;18.598;2022-09-20T16:38:24;10.03;;;5.20;;
70270;SDS011;57680;54.292;18.598;2022-09-20T16:40:50;9.60;;;3.58;;
70270;SDS011;57680;54.292;18.598;2022-09-20T16:43:16;8.73;;;4.07;;
70270;SDS011;57680;54.292;18.598;2022-09-20T16:45:56;8.67;;;3.83;;
70270;SDS011;57680;54.292;18.598;2022-09-20T16:48:23;6.68;;;3.08;;
70270;SDS011;57680;54.292;18.598;2022-09-20T16:50:55;9.75;;;4.45;;
70270;SDS011;57680;54.292;18.598;2022-09-20T16:53:26;13.70;;;6.78;;
70270;SDS011;57680;54.292;18.598;2022-09-20T16:55:52;12.55;;;6.40;;
70270;SDS011;57680;54.292;18.598;2022-09-20T16:58:27;8.97;;;4.13;;
70270;SDS011;57680;54.292;18.598;2022-09-20T17:01:00;8.88;;;4.13;;
70270;SDS011;57680;54.292;18.598;2022-09-20T17:03:31;7.43;;;3.30;;
70270;SDS011;57680;54.292;18.598;2022-09-20T17:06:03;9.70;;;3.83;;
70270;SDS011;57680;54.292;18.598;2022-09-20T17:08:32;8.10;;;3.37;;
70270;SDS011;57680;54.292;18.598;2022-09-20T17:11:08;12.85;;;3.78;;
70270;SDS011;57680;54.292;18.598;2022-09-20T17:13:36;11.02;;;4.22;;
70270;SDS011;57680;54.292;18.598;2022-09-20T17:16:15;9.63;;;4.72;;
70270;SDS011;57680;54.292;18.598;2022-09-20T17:19:07;8.80;;;3.72;;
70270;SDS011;57680;54.292;18.598;2022-09-20T17:21:37;11.83;;;4.03;;
70270;SDS011;57680;54.292;18.598;2022-09-20T17:24:04;8.95;;;3.83;;
70270;SDS011;57680;54.292;18.598;2022-09-20T17:26:38;10.35;;;4.40;;
70270;SDS011;57680;54.292;18.598;2022-09-20T17:29:09;10.20;;;4.60;;
70270;SDS011;57680;54.292;18.598;2022-09-20T17:31:38;10.75;;;4.32;;
70270;SDS011;57680;54.292;18.598;2022-09-20T17:34:06;10.03;;;3.50;;
70270;SDS011;57680;54.292;18.598;2022-09-20T17:36:42;8.82;;;3.55;;
70270;SDS011;57680;54.292;18.598;2022-09-20T17:39:10;9.57;;;4.10;;
70270;SDS011;57680;54.292;18.598;2022-09-20T17:41:38;10.25;;;3.70;;
70270;SDS011;57680;54.292;18.598;2022-09-20T17:44:04;9.75;;;3.88;;
70270;SDS011;57680;54.292;18.598;2022-09-20T17:46:44;10.30;;;4.10;;
70270;SDS011;57680;54.292;18.598;2022-09-20T17:49:11;11.00;;;4.60;;
70270;SDS011;57680;54.292;18.598;2022-09-20T17:51:40;12.18;;;4.65;;
70270;SDS011;57680;54.292;18.598;2022-09-20T17:54:07;11.07;;;4.93;;
70270;SDS011;57680;54.292;18.598;2022-09-20T17:56:33;11.20;;;4.72;;
70270;SDS011;57680;54.292;18.598;2022-09-20T17:59:00;11.83;;;5.10;;
70270;SDS011;57680;54.292;18.598;2022-09-20T18:01:27;11.05;;;4.85;;
70270;SDS011;57680;54.292;18.598;2022-09-20T18:03:55;10.82;;;4.75;;
70270;SDS011;57680;54.292;18.598;2022-09-20T18:06:22;9.27;;;4.35;;
70270;SDS011;57680;54.292;18.598;2022-09-20T18:08:53;10.20;;;4.63;;
70270;SDS011;57680;54.292;18.598;2022-09-20T18:11:22;9.97;;;5.20;;
70270;SDS011;57680;54.292;18.598;2022-09-20T18:13:52;10.20;;;4.15;;
70270;SDS011;57680;54.292;18.598;2022-09-20T18:16:17;10.23;;;4.25;;
70270;SDS011;57680;54.292;18.598;2022-09-20T18:18:43;11.93;;;4.77;;
70270;SDS011;57680;54.292;18.598;2022-09-20T18:23:40;8.30;;;3.88;;
70270;SDS011;57680;54.292;18.598;2022-09-20T18:26:08;12.80;;;4.90;;
70270;SDS011;57680;54.292;18.598;2022-09-20T18:29:00;13.65;;;5.38;;
70270;SDS011;57680;54.292;18.598;2022-09-20T18:31:44;16.33;;;6.40;;
70270;SDS011;57680;54.292;18.598;2022-09-20T18:34:15;9.35;;;4.40;;
70270;SDS011;57680;54.292;18.598;2022-09-20T18:36:43;11.15;;;4.47;;
70270;SDS011;57680;54.292;18.598;2022-09-20T18:39:10;9.63;;;4.00;;
70270;SDS011;57680;54.292;18.598;2022-09-20T18:41:37;10.90;;;4.78;;
70270;SDS011;57680;54.292;18.598;2022-09-20T18:44:05;11.77;;;5.05;;
70270;SDS011;57680;54.292;18.598;2022-09-20T18:46:31;11.63;;;5.20;;
70270;SDS011;57680;54.292;18.598;2022-09-20T18:49:03;10.38;;;4.70;;
70270;SDS011;57680;54.292;18.598;2022-09-20T18:51:30;13.97;;;6.23;;
70270;SDS011;57680;54.292;18.598;2022-09-20T18:53:56;13.07;;;6.00;;
70270;SDS011;57680;54.292;18.598;2022-09-20T18:56:23;9.45;;;4.20;;
70270;SDS011;57680;54.292;18.598;2022-09-20T18:58:55;13.65;;;5.40;;
70270;SDS011;57680;54.292;18.598;2022-09-20T19:01:33;14.70;;;4.80;;
70270;SDS011;57680;54.292;18.598;2022-09-20T19:04:20;12.05;;;5.22;;
70270;SDS011;57680;54.292;18.598;2022-09-20T19:07:50;10.52;;;4.70;;
70270;SDS011;57680;54.292;18.598;2022-09-20T19:15:15;11.80;;;5.23;;
70270;SDS011;57680;54.292;18.598;2022-09-20T19:26:32;8.80;;;3.30;;
70270;SDS011;57680;54.292;18.598;2022-09-20T19:29:03;8.57;;;3.90;;
70270;SDS011;57680;54.292;18.598;2022-09-20T19:31:40;11.55;;;4.82;;
70270;SDS011;57680;54.292;18.598;2022-09-20T19:34:09;10.05;;;4.03;;
70270;SDS011;57680;54.292;18.598;2022-09-20T19:36:52;9.50;;;3.67;;
70270;SDS011;57680;54.292;18.598;2022-09-20T19:39:24;11.93;;;4.37;;
70270;SDS011;57680;54.292;18.598;2022-09-20T19:41:56;10.02;;;3.45;;
70270;SDS011;57680;54.292;18.598;2022-09-20T19:44:59;11.10;;;4.57;;
70270;SDS011;57680;54.292;18.598;2022-09-20T19:53:10;10.07;;;3.97;;
70270;SDS011;57680;54.292;18.598;2022-09-20T19:55:51;8.95;;;3.60;;
70270;SDS011;57680;54.292;18.598;2022-09-20T19:58:25;13.15;;;4.63;;
70270;SDS011;57680;54.292;18.598;2022-09-20T20:00:50;8.65;;;3.42;;
70270;SDS011;57680;54.292;18.598;2022-09-20T20:03:17;9.65;;;4.20;;
70270;SDS011;57680;54.292;18.598;2022-09-20T20:09:14;10.38;;;3.67;;
70270;SDS011;57680;54.292;18.598;2022-09-20T20:14:48;10.30;;;4.18;;
70270;SDS011;57680;54.292;18.598;2022-09-20T20:17:42;8.73;;;4.03;;
70270;SDS011;57680;54.292;18.598;2022-09-20T20:26:24;9.60;;;3.42;;
70270;SDS011;57680;54.292;18.598;2022-09-20T20:28:51;13.80;;;4.32;;
70270;SDS011;57680;54.292;18.598;2022-09-20T20:31:20;13.23;;;4.45;;
70270;SDS011;57680;54.292;18.598;2022-09-20T20:33:47;10.63;;;3.37;;
70270;SDS011;57680;54.292;18.598;2022-09-20T20:36:13;10.55;;;4.00;;
70270;SDS011;57680;54.292;18.598;2022-09-20T20:38:40;11.32;;;3.85;;
70270;SDS011;57680;54.292;18.598;2022-09-20T20:41:13;8.07;;;3.35;;
70270;SDS011;57680;54.292;18.598;2022-09-20T20:43:42;9.13;;;3.80;;
70270;SDS011;57680;54.292;18.598;2022-09-20T20:46:11;10.77;;;4.63;;
70270;SDS011;57680;54.292;18.598;2022-09-20T20:48:43;12.65;;;4.22;;